sensor_id;sensor_type;location;lat;lon;timestamp;P1;durP1;ratioP1;P2;durP2;ratioP2
82630;SDS011;72301;52.376;9.738;2023-08-31T00:01:42;5.17;;;1.90;;
82630;SDS011;72301;52.376;9.738;2023-08-31T00:04:08;4.85;;;1.73;;
82630;SDS011;72301;52.376;9.738;2023-08-31T00:06:39;5.40;;;1.80;;
82630;SDS011;72301;52.376;9.738;2023-08-31T00:09:04;5.65;;;1.70;;
82630;SDS011;72301;52.376;9.738;2023-08-31T00:11:34;6.55;;;2.05;;
82630;SDS011;72301;52.376;9.738;2023-08-31T00:14:00;4.95;;;1.98;;
82630;SDS011;72301;52.376;9.738;2023-08-31T00:16:25;4.82;;;1.80;;
82630;SDS011;72301;52.376;9.738;2023-08-31T00:18:51;5.20;;;1.90;;
82630;SDS011;72301;52.376;9.738;2023-08-31T00:21:17;4.93;;;2.22;;
82630;SDS011;72301;52.376;9.738;2023-08-31T00:23:42;7.00;;;2.20;;
82630;SDS011;72301;52.376;9.738;2023-08-31T00:26:08;4.68;;;1.83;;
82630;SDS011;72301;52.376;9.738;2023-08-31T00:28:33;6.45;;;2.30;;
82630;SDS011;72301;52.376;9.738;2023-08-31T00:31:02;4.45;;;1.67;;
82630;SDS011;72301;52.376;9.738;2023-08-31T00:33:30;5.53;;;1.95;;
82630;SDS011;72301;52.376;9.738;2023-08-31T00:35:58;4.87;;;1.57;;
82630;SDS011;72301;52.376;9.738;2023-08-31T00:38:28;4.53;;;1.75;;
82630;SDS011;72301;52.376;9.738;2023-08-31T00:40:53;4.70;;;1.83;;
82630;SDS011;72301;52.376;9.738;2023-08-31T00:43:19;5.32;;;1.83;;
82630;SDS011;72301;52.376;9.738;2023-08-31T00:45:46;6.18;;;2.17;;
82630;SDS011;72301;52.376;9.738;2023-08-31T00:48:14;4.97;;;1.70;;
82630;SDS011;72301;52.376;9.738;2023-08-31T00:50:40;5.63;;;2.03;;
82630;SDS011;72301;52.376;9.738;2023-08-31T00:53:05;6.32;;;1.90;;
82630;SDS011;72301;52.376;9.738;2023-08-31T00:55:31;5.78;;;1.98;;
82630;SDS011;72301;52.376;9.738;2023-08-31T00:57:58;4.72;;;1.92;;
82630;SDS011;72301;52.376;9.738;2023-08-31T01:00:25;5.38;;;2.08;;
82630;SDS011;72301;52.376;9.738;2023-08-31T01:03:03;5.97;;;1.75;;
82630;SDS011;72301;52.376;9.738;2023-08-31T01:09:01;7.03;;;1.95;;
82630;SDS011;72301;52.376;9.738;2023-08-31T01:11:37;6.15;;;2.00;;
82630;SDS011;72301;52.376;9.738;2023-08-31T01:14:32;4.43;;;1.58;;
82630;SDS011;72301;52.376;9.738;2023-08-31T01:17:01;4.72;;;1.50;;
82630;SDS011;72301;52.376;9.738;2023-08-31T01:19:39;4.55;;;1.73;;
82630;SDS011;72301;52.376;9.738;2023-08-31T01:22:06;5.20;;;1.63;;
82630;SDS011;72301;52.376;9.738;2023-08-31T01:24:34;5.00;;;1.70;;
82630;SDS011;72301;52.376;9.738;2023-08-31T01:27:00;4.68;;;1.85;;
82630;SDS011;72301;52.376;9.738;2023-08-31T01:29:25;5.67;;;1.70;;
82630;SDS011;72301;52.376;9.738;2023-08-31T01:31:51;5.78;;;2.20;;
82630;SDS011;72301;52.376;9.738;2023-08-31T01:34:16;4.50;;;1.70;;
82630;SDS011;72301;52.376;9.738;2023-08-31T01:36:43;5.67;;;1.60;;
82630;SDS011;72301;52.376;9.738;2023-08-31T01:39:15;5.93;;;1.80;;
82630;SDS011;72301;52.376;9.738;2023-08-31T01:41:47;6.18;;;1.67;;
82630;SDS011;72301;52.376;9.738;2023-08-31T01:44:15;5.78;;;1.70;;
82630;SDS011;72301;52.376;9.738;2023-08-31T01:46:45;5.82;;;1.75;;
82630;SDS011;72301;52.376;9.738;2023-08-31T01:49:11;4.72;;;1.60;;
82630;SDS011;72301;52.376;9.738;2023-08-31T01:51:36;5.07;;;1.50;;
82630;SDS011;72301;52.376;9.738;2023-08-31T01:54:01;5.60;;;1.58;;
82630;SDS011;72301;52.376;9.738;2023-08-31T01:56:27;4.68;;;1.50;;
82630;SDS011;72301;52.376;9.738;2023-08-31T01:58:52;5.73;;;1.60;;
82630;SDS011;72301;52.376;9.738;2023-08-31T02:01:17;5.57;;;1.70;;
82630;SDS011;72301;52.376;9.738;2023-08-31T02:03:43;4.20;;;1.67;;
82630;SDS011;72301;52.376;9.738;2023-08-31T02:06:08;4.78;;;1.65;;
82630;SDS011;72301;52.376;9.738;2023-08-31T02:08:33;4.83;;;1.60;;
82630;SDS011;72301;52.376;9.738;2023-08-31T02:10:59;4.83;;;1.83;;
82630;SDS011;72301;52.376;9.738;2023-08-31T02:13:24;5.40;;;1.70;;
82630;SDS011;72301;52.376;9.738;2023-08-31T02:15:52;5.07;;;1.60;;
82630;SDS011;72301;52.376;9.738;2023-08-31T02:18:18;4.53;;;1.60;;
82630;SDS011;72301;52.376;9.738;2023-08-31T02:20:44;5.28;;;1.70;;
82630;SDS011;72301;52.376;9.738;2023-08-31T02:23:09;4.73;;;1.43;;
82630;SDS011;72301;52.376;9.738;2023-08-31T02:25:34;4.50;;;1.50;;
82630;SDS011;72301;52.376;9.738;2023-08-31T02:28:00;4.57;;;1.52;;
82630;SDS011;72301;52.376;9.738;2023-08-31T02:30:25;5.37;;;1.40;;
82630;SDS011;72301;52.376;9.738;2023-08-31T02:32:50;5.60;;;1.70;;
82630;SDS011;72301;52.376;9.738;2023-08-31T02:35:15;5.10;;;1.80;;
82630;SDS011;72301;52.376;9.738;2023-08-31T02:37:41;6.23;;;1.77;;
82630;SDS011;72301;52.376;9.738;2023-08-31T02:40:06;4.75;;;1.60;;
82630;SDS011;72301;52.376;9.738;2023-08-31T02:42:33;6.20;;;1.85;;
82630;SDS011;72301;52.376;9.738;2023-08-31T02:44:58;4.13;;;1.65;;
82630;SDS011;72301;52.376;9.738;2023-08-31T02:47:24;5.33;;;1.70;;
82630;SDS011;72301;52.376;9.738;2023-08-31T02:49:49;5.20;;;1.75;;
82630;SDS011;72301;52.376;9.738;2023-08-31T02:52:14;4.10;;;1.50;;
82630;SDS011;72301;52.376;9.738;2023-08-31T02:54:40;4.90;;;1.70;;
82630;SDS011;72301;52.376;9.738;2023-08-31T02:57:05;5.30;;;1.63;;
82630;SDS011;72301;52.376;9.738;2023-08-31T02:59:30;5.85;;;1.65;;
82630;SDS011;72301;52.376;9.738;2023-08-31T03:01:56;5.10;;;1.60;;
82630;SDS011;72301;52.376;9.738;2023-08-31T03:04:21;5.57;;;1.50;;
82630;SDS011;72301;52.376;9.738;2023-08-31T03:06:47;6.00;;;1.67;;
82630;SDS011;72301;52.376;9.738;2023-08-31T03:09:12;3.80;;;1.33;;
82630;SDS011;72301;52.376;9.738;2023-08-31T03:11:38;4.88;;;1.50;;
82630;SDS011;72301;52.376;9.738;2023-08-31T03:14:03;4.63;;;1.63;;
82630;SDS011;72301;52.376;9.738;2023-08-31T03:16:29;5.43;;;1.60;;
82630;SDS011;72301;52.376;9.738;2023-08-31T03:18:54;5.40;;;1.50;;
82630;SDS011;72301;52.376;9.738;2023-08-31T03:21:19;4.40;;;1.50;;
82630;SDS011;72301;52.376;9.738;2023-08-31T03:23:45;6.45;;;1.67;;
82630;SDS011;72301;52.376;9.738;2023-08-31T03:26:10;5.50;;;1.67;;
82630;SDS011;72301;52.376;9.738;2023-08-31T03:28:35;5.87;;;1.80;;
82630;SDS011;72301;52.376;9.738;2023-08-31T03:31:01;4.40;;;1.50;;
82630;SDS011;72301;52.376;9.738;2023-08-31T03:33:26;5.85;;;1.70;;
82630;SDS011;72301;52.376;9.738;2023-08-31T03:35:53;5.10;;;1.65;;
82630;SDS011;72301;52.376;9.738;2023-08-31T03:38:19;4.40;;;1.50;;
82630;SDS011;72301;52.376;9.738;2023-08-31T03:40:52;3.67;;;1.40;;
82630;SDS011;72301;52.376;9.738;2023-08-31T03:43:20;4.95;;;1.58;;
82630;SDS011;72301;52.376;9.738;2023-08-31T03:45:46;4.57;;;1.63;;
82630;SDS011;72301;52.376;9.738;2023-08-31T03:48:11;4.87;;;1.50;;
82630;SDS011;72301;52.376;9.738;2023-08-31T03:50:37;4.63;;;1.53;;
82630;SDS011;72301;52.376;9.738;2023-08-31T03:53:02;6.63;;;1.50;;
82630;SDS011;72301;52.376;9.738;2023-08-31T03:55:28;5.63;;;1.50;;
82630;SDS011;72301;52.376;9.738;2023-08-31T03:57:53;5.93;;;1.73;;
82630;SDS011;72301;52.376;9.738;2023-08-31T04:00:18;4.67;;;1.63;;
82630;SDS011;72301;52.376;9.738;2023-08-31T04:02:44;5.18;;;1.42;;
82630;SDS011;72301;52.376;9.738;2023-08-31T04:05:09;5.40;;;1.55;;
82630;SDS011;72301;52.376;9.738;2023-08-31T04:07:35;5.30;;;1.67;;
82630;SDS011;72301;52.376;9.738;2023-08-31T04:10:00;4.43;;;1.60;;
82630;SDS011;72301;52.376;9.738;2023-08-31T04:12:26;5.10;;;1.58;;
82630;SDS011;72301;52.376;9.738;2023-08-31T04:14:51;4.55;;;1.73;;
82630;SDS011;72301;52.376;9.738;2023-08-31T04:17:17;6.73;;;1.80;;
82630;SDS011;72301;52.376;9.738;2023-08-31T04:19:42;3.90;;;1.40;;
82630;SDS011;72301;52.376;9.738;2023-08-31T04:22:07;4.67;;;1.57;;
82630;SDS011;72301;52.376;9.738;2023-08-31T04:24:33;4.88;;;1.90;;
82630;SDS011;72301;52.376;9.738;2023-08-31T04:26:58;4.67;;;1.43;;
82630;SDS011;72301;52.376;9.738;2023-08-31T04:29:24;5.45;;;1.50;;
82630;SDS011;72301;52.376;9.738;2023-08-31T04:31:49;5.30;;;1.48;;
82630;SDS011;72301;52.376;9.738;2023-08-31T04:34:15;4.18;;;1.30;;
82630;SDS011;72301;52.376;9.738;2023-08-31T04:36:41;4.95;;;1.40;;
82630;SDS011;72301;52.376;9.738;2023-08-31T04:39:06;5.38;;;1.48;;
82630;SDS011;72301;52.376;9.738;2023-08-31T04:41:32;6.65;;;1.95;;
82630;SDS011;72301;52.376;9.738;2023-08-31T04:43:58;4.88;;;1.70;;
82630;SDS011;72301;52.376;9.738;2023-08-31T04:46:23;3.85;;;1.35;;
82630;SDS011;72301;52.376;9.738;2023-08-31T04:48:48;3.73;;;1.40;;
82630;SDS011;72301;52.376;9.738;2023-08-31T04:51:27;4.40;;;1.42;;
82630;SDS011;72301;52.376;9.738;2023-08-31T04:53:57;4.38;;;1.50;;
82630;SDS011;72301;52.376;9.738;2023-08-31T04:56:22;4.78;;;1.48;;
82630;SDS011;72301;52.376;9.738;2023-08-31T04:58:48;5.55;;;1.52;;
82630;SDS011;72301;52.376;9.738;2023-08-31T05:01:13;4.90;;;1.63;;
82630;SDS011;72301;52.376;9.738;2023-08-31T05:03:39;5.80;;;1.40;;
82630;SDS011;72301;52.376;9.738;2023-08-31T05:06:04;5.17;;;1.50;;
82630;SDS011;72301;52.376;9.738;2023-08-31T05:08:30;4.30;;;1.50;;
82630;SDS011;72301;52.376;9.738;2023-08-31T05:10:55;5.18;;;1.58;;
82630;SDS011;72301;52.376;9.738;2023-08-31T05:13:20;4.83;;;1.60;;
82630;SDS011;72301;52.376;9.738;2023-08-31T05:15:46;5.87;;;1.50;;
82630;SDS011;72301;52.376;9.738;2023-08-31T05:18:11;5.20;;;1.43;;
82630;SDS011;72301;52.376;9.738;2023-08-31T05:20:36;4.33;;;1.50;;
82630;SDS011;72301;52.376;9.738;2023-08-31T05:23:02;5.83;;;1.53;;
82630;SDS011;72301;52.376;9.738;2023-08-31T05:25:28;5.45;;;1.58;;
82630;SDS011;72301;52.376;9.738;2023-08-31T05:27:53;5.30;;;1.80;;
82630;SDS011;72301;52.376;9.738;2023-08-31T05:30:18;4.23;;;1.60;;
82630;SDS011;72301;52.376;9.738;2023-08-31T05:32:44;5.93;;;1.57;;
82630;SDS011;72301;52.376;9.738;2023-08-31T05:35:09;6.05;;;1.60;;
82630;SDS011;72301;52.376;9.738;2023-08-31T05:37:34;4.77;;;1.70;;
82630;SDS011;72301;52.376;9.738;2023-08-31T05:40:01;6.47;;;1.63;;
82630;SDS011;72301;52.376;9.738;2023-08-31T05:42:31;4.70;;;1.40;;
82630;SDS011;72301;52.376;9.738;2023-08-31T05:44:56;5.47;;;1.52;;
82630;SDS011;72301;52.376;9.738;2023-08-31T05:47:21;5.83;;;1.93;;
82630;SDS011;72301;52.376;9.738;2023-08-31T05:49:47;5.63;;;1.83;;
82630;SDS011;72301;52.376;9.738;2023-08-31T05:52:12;4.70;;;1.70;;
82630;SDS011;72301;52.376;9.738;2023-08-31T05:54:38;5.75;;;1.60;;
82630;SDS011;72301;52.376;9.738;2023-08-31T05:57:03;5.77;;;1.43;;
82630;SDS011;72301;52.376;9.738;2023-08-31T05:59:30;7.38;;;1.90;;
82630;SDS011;72301;52.376;9.738;2023-08-31T06:01:55;4.93;;;1.67;;
82630;SDS011;72301;52.376;9.738;2023-08-31T06:04:21;6.17;;;1.60;;
82630;SDS011;72301;52.376;9.738;2023-08-31T06:06:46;5.77;;;1.40;;
82630;SDS011;72301;52.376;9.738;2023-08-31T06:09:12;5.97;;;1.60;;
82630;SDS011;72301;52.376;9.738;2023-08-31T06:11:38;3.92;;;1.60;;
82630;SDS011;72301;52.376;9.738;2023-08-31T06:14:04;6.00;;;1.70;;
82630;SDS011;72301;52.376;9.738;2023-08-31T06:16:29;5.20;;;1.73;;
82630;SDS011;72301;52.376;9.738;2023-08-31T06:18:54;4.70;;;1.60;;
82630;SDS011;72301;52.376;9.738;2023-08-31T06:21:20;5.50;;;1.90;;
82630;SDS011;72301;52.376;9.738;2023-08-31T06:23:45;4.23;;;1.80;;
82630;SDS011;72301;52.376;9.738;2023-08-31T06:26:10;5.03;;;1.93;;
82630;SDS011;72301;52.376;9.738;2023-08-31T06:28:36;4.65;;;1.80;;
82630;SDS011;72301;52.376;9.738;2023-08-31T06:31:01;4.13;;;1.73;;
82630;SDS011;72301;52.376;9.738;2023-08-31T06:33:27;5.40;;;2.17;;
82630;SDS011;72301;52.376;9.738;2023-08-31T06:35:52;5.97;;;1.90;;
82630;SDS011;72301;52.376;9.738;2023-08-31T06:38:18;5.43;;;1.90;;
82630;SDS011;72301;52.376;9.738;2023-08-31T06:40:44;5.72;;;2.10;;
82630;SDS011;72301;52.376;9.738;2023-08-31T06:43:09;5.97;;;2.20;;
82630;SDS011;72301;52.376;9.738;2023-08-31T06:45:35;5.30;;;2.00;;
82630;SDS011;72301;52.376;9.738;2023-08-31T06:48:00;6.05;;;2.20;;
82630;SDS011;72301;52.376;9.738;2023-08-31T06:50:26;5.10;;;1.92;;
82630;SDS011;72301;52.376;9.738;2023-08-31T06:52:51;6.10;;;2.20;;
82630;SDS011;72301;52.376;9.738;2023-08-31T06:55:17;7.57;;;2.63;;
82630;SDS011;72301;52.376;9.738;2023-08-31T06:57:42;5.67;;;2.33;;
82630;SDS011;72301;52.376;9.738;2023-08-31T07:00:08;6.28;;;2.42;;
82630;SDS011;72301;52.376;9.738;2023-08-31T07:02:39;6.78;;;2.47;;
82630;SDS011;72301;52.376;9.738;2023-08-31T07:05:04;5.60;;;2.40;;
82630;SDS011;72301;52.376;9.738;2023-08-31T07:07:31;5.53;;;2.30;;
82630;SDS011;72301;52.376;9.738;2023-08-31T07:09:56;5.13;;;2.22;;
82630;SDS011;72301;52.376;9.738;2023-08-31T07:12:22;6.57;;;2.67;;
82630;SDS011;72301;52.376;9.738;2023-08-31T07:14:47;5.73;;;2.60;;
82630;SDS011;72301;52.376;9.738;2023-08-31T07:17:12;8.33;;;2.47;;
82630;SDS011;72301;52.376;9.738;2023-08-31T07:19:38;5.05;;;2.20;;
82630;SDS011;72301;52.376;9.738;2023-08-31T07:22:03;6.55;;;2.67;;
82630;SDS011;72301;52.376;9.738;2023-08-31T07:24:29;6.57;;;2.67;;
82630;SDS011;72301;52.376;9.738;2023-08-31T07:26:55;6.68;;;2.80;;
82630;SDS011;72301;52.376;9.738;2023-08-31T07:29:20;5.90;;;2.83;;
82630;SDS011;72301;52.376;9.738;2023-08-31T07:31:46;6.55;;;3.08;;
82630;SDS011;72301;52.376;9.738;2023-08-31T07:34:11;7.77;;;3.00;;
82630;SDS011;72301;52.376;9.738;2023-08-31T07:36:36;7.53;;;2.60;;
82630;SDS011;72301;52.376;9.738;2023-08-31T07:39:02;6.38;;;2.35;;
82630;SDS011;72301;52.376;9.738;2023-08-31T07:41:28;7.28;;;2.80;;
82630;SDS011;72301;52.376;9.738;2023-08-31T07:43:54;8.10;;;2.45;;
82630;SDS011;72301;52.376;9.738;2023-08-31T07:46:20;5.97;;;2.58;;
82630;SDS011;72301;52.376;9.738;2023-08-31T07:48:46;6.45;;;2.85;;
82630;SDS011;72301;52.376;9.738;2023-08-31T07:51:13;6.20;;;2.90;;
82630;SDS011;72301;52.376;9.738;2023-08-31T07:53:38;6.10;;;2.45;;
82630;SDS011;72301;52.376;9.738;2023-08-31T07:56:04;7.13;;;2.60;;
82630;SDS011;72301;52.376;9.738;2023-08-31T07:58:29;6.10;;;2.92;;
82630;SDS011;72301;52.376;9.738;2023-08-31T08:00:55;7.63;;;2.70;;
82630;SDS011;72301;52.376;9.738;2023-08-31T08:03:27;6.68;;;2.85;;
82630;SDS011;72301;52.376;9.738;2023-08-31T08:05:53;6.80;;;2.63;;
82630;SDS011;72301;52.376;9.738;2023-08-31T08:08:18;5.93;;;2.60;;
82630;SDS011;72301;52.376;9.738;2023-08-31T08:10:43;6.10;;;2.73;;
82630;SDS011;72301;52.376;9.738;2023-08-31T08:13:09;6.07;;;2.60;;
82630;SDS011;72301;52.376;9.738;2023-08-31T08:15:34;6.15;;;2.65;;
82630;SDS011;72301;52.376;9.738;2023-08-31T08:18:00;6.53;;;2.37;;
82630;SDS011;72301;52.376;9.738;2023-08-31T08:20:27;5.60;;;2.60;;
82630;SDS011;72301;52.376;9.738;2023-08-31T08:22:53;6.43;;;2.80;;
82630;SDS011;72301;52.376;9.738;2023-08-31T08:25:19;6.70;;;2.60;;
82630;SDS011;72301;52.376;9.738;2023-08-31T08:27:45;7.45;;;2.75;;
82630;SDS011;72301;52.376;9.738;2023-08-31T08:30:10;6.40;;;2.70;;
82630;SDS011;72301;52.376;9.738;2023-08-31T08:32:36;7.05;;;2.72;;
82630;SDS011;72301;52.376;9.738;2023-08-31T08:35:01;6.30;;;2.90;;
82630;SDS011;72301;52.376;9.738;2023-08-31T08:37:31;7.95;;;2.60;;
82630;SDS011;72301;52.376;9.738;2023-08-31T08:39:58;6.53;;;2.63;;
82630;SDS011;72301;52.376;9.738;2023-08-31T08:42:24;5.85;;;2.75;;
82630;SDS011;72301;52.376;9.738;2023-08-31T08:44:50;6.90;;;3.00;;
82630;SDS011;72301;52.376;9.738;2023-08-31T08:47:15;6.93;;;2.67;;
82630;SDS011;72301;52.376;9.738;2023-08-31T08:49:41;5.78;;;2.70;;
82630;SDS011;72301;52.376;9.738;2023-08-31T08:52:10;6.43;;;2.75;;
82630;SDS011;72301;52.376;9.738;2023-08-31T08:54:46;6.50;;;2.55;;
82630;SDS011;72301;52.376;9.738;2023-08-31T08:57:12;6.60;;;2.58;;
82630;SDS011;72301;52.376;9.738;2023-08-31T08:59:38;6.10;;;2.45;;
82630;SDS011;72301;52.376;9.738;2023-08-31T09:02:04;6.03;;;3.20;;
82630;SDS011;72301;52.376;9.738;2023-08-31T09:04:30;5.43;;;2.70;;
82630;SDS011;72301;52.376;9.738;2023-08-31T09:06:56;5.95;;;2.97;;
82630;SDS011;72301;52.376;9.738;2023-08-31T09:09:21;6.33;;;2.80;;
82630;SDS011;72301;52.376;9.738;2023-08-31T09:11:47;6.10;;;2.88;;
82630;SDS011;72301;52.376;9.738;2023-08-31T09:14:13;5.78;;;2.90;;
82630;SDS011;72301;52.376;9.738;2023-08-31T09:16:45;5.95;;;2.65;;
82630;SDS011;72301;52.376;9.738;2023-08-31T09:19:18;6.75;;;2.72;;
82630;SDS011;72301;52.376;9.738;2023-08-31T09:21:43;5.93;;;2.60;;
82630;SDS011;72301;52.376;9.738;2023-08-31T09:24:10;6.40;;;2.70;;
82630;SDS011;72301;52.376;9.738;2023-08-31T09:26:37;6.50;;;2.55;;
82630;SDS011;72301;52.376;9.738;2023-08-31T09:29:04;6.18;;;2.85;;
82630;SDS011;72301;52.376;9.738;2023-08-31T09:31:30;7.15;;;2.92;;
82630;SDS011;72301;52.376;9.738;2023-08-31T09:33:56;6.13;;;2.58;;
82630;SDS011;72301;52.376;9.738;2023-08-31T09:36:21;6.70;;;2.72;;
82630;SDS011;72301;52.376;9.738;2023-08-31T09:38:47;5.85;;;2.80;;
82630;SDS011;72301;52.376;9.738;2023-08-31T09:41:13;6.70;;;2.80;;
82630;SDS011;72301;52.376;9.738;2023-08-31T09:43:38;7.38;;;2.90;;
82630;SDS011;72301;52.376;9.738;2023-08-31T09:46:04;7.35;;;2.92;;
82630;SDS011;72301;52.376;9.738;2023-08-31T09:48:30;7.30;;;2.90;;
82630;SDS011;72301;52.376;9.738;2023-08-31T09:50:56;7.65;;;2.70;;
82630;SDS011;72301;52.376;9.738;2023-08-31T09:53:25;5.90;;;2.80;;
82630;SDS011;72301;52.376;9.738;2023-08-31T09:55:54;6.10;;;2.72;;
82630;SDS011;72301;52.376;9.738;2023-08-31T09:58:20;6.38;;;2.83;;
82630;SDS011;72301;52.376;9.738;2023-08-31T10:00:51;5.80;;;2.60;;
82630;SDS011;72301;52.376;9.738;2023-08-31T10:03:17;5.97;;;3.22;;
82630;SDS011;72301;52.376;9.738;2023-08-31T10:05:43;6.97;;;3.08;;
82630;SDS011;72301;52.376;9.738;2023-08-31T10:08:09;6.00;;;2.85;;
82630;SDS011;72301;52.376;9.738;2023-08-31T10:10:35;6.40;;;2.88;;
82630;SDS011;72301;52.376;9.738;2023-08-31T10:13:00;6.70;;;3.10;;
82630;SDS011;72301;52.376;9.738;2023-08-31T10:15:26;5.60;;;2.60;;
82630;SDS011;72301;52.376;9.738;2023-08-31T10:17:57;6.15;;;2.90;;
82630;SDS011;72301;52.376;9.738;2023-08-31T10:20:25;5.82;;;2.92;;
82630;SDS011;72301;52.376;9.738;2023-08-31T10:22:53;6.82;;;2.75;;
82630;SDS011;72301;52.376;9.738;2023-08-31T10:25:19;6.47;;;3.22;;
82630;SDS011;72301;52.376;9.738;2023-08-31T10:27:45;6.50;;;3.28;;
82630;SDS011;72301;52.376;9.738;2023-08-31T10:35:56;6.97;;;3.60;;
82630;SDS011;72301;52.376;9.738;2023-08-31T10:43:43;7.50;;;3.20;;
82630;SDS011;72301;52.376;9.738;2023-08-31T10:46:28;7.78;;;2.92;;
82630;SDS011;72301;52.376;9.738;2023-08-31T10:51:38;7.35;;;3.30;;
82630;SDS011;72301;52.376;9.738;2023-08-31T10:57:00;7.40;;;3.65;;
82630;SDS011;72301;52.376;9.738;2023-08-31T10:59:49;8.68;;;3.85;;
82630;SDS011;72301;52.376;9.738;2023-08-31T11:02:28;7.60;;;3.75;;
82630;SDS011;72301;52.376;9.738;2023-08-31T11:07:31;7.45;;;3.85;;
82630;SDS011;72301;52.376;9.738;2023-08-31T11:10:10;6.82;;;3.70;;
82630;SDS011;72301;52.376;9.738;2023-08-31T11:12:44;6.78;;;3.42;;
82630;SDS011;72301;52.376;9.738;2023-08-31T11:15:13;8.90;;;3.70;;
82630;SDS011;72301;52.376;9.738;2023-08-31T11:17:40;6.30;;;3.38;;
82630;SDS011;72301;52.376;9.738;2023-08-31T11:20:07;7.95;;;3.80;;
82630;SDS011;72301;52.376;9.738;2023-08-31T11:22:34;6.30;;;3.25;;
82630;SDS011;72301;52.376;9.738;2023-08-31T11:24:59;6.88;;;3.40;;
82630;SDS011;72301;52.376;9.738;2023-08-31T11:27:25;7.35;;;3.30;;
82630;SDS011;72301;52.376;9.738;2023-08-31T11:29:50;6.93;;;3.60;;
82630;SDS011;72301;52.376;9.738;2023-08-31T11:32:16;6.67;;;3.27;;
82630;SDS011;72301;52.376;9.738;2023-08-31T11:34:41;7.80;;;3.17;;
82630;SDS011;72301;52.376;9.738;2023-08-31T11:37:08;6.70;;;3.35;;
82630;SDS011;72301;52.376;9.738;2023-08-31T11:39:34;7.57;;;3.53;;
82630;SDS011;72301;52.376;9.738;2023-08-31T11:41:59;6.97;;;3.37;;
82630;SDS011;72301;52.376;9.738;2023-08-31T11:44:24;8.52;;;3.50;;
82630;SDS011;72301;52.376;9.738;2023-08-31T11:46:50;6.78;;;3.65;;
82630;SDS011;72301;52.376;9.738;2023-08-31T11:49:17;7.10;;;3.35;;
82630;SDS011;72301;52.376;9.738;2023-08-31T11:51:43;7.90;;;3.75;;
82630;SDS011;72301;52.376;9.738;2023-08-31T11:54:09;7.45;;;3.80;;
82630;SDS011;72301;52.376;9.738;2023-08-31T11:56:45;7.55;;;3.75;;
82630;SDS011;72301;52.376;9.738;2023-08-31T11:59:15;6.70;;;3.15;;
82630;SDS011;72301;52.376;9.738;2023-08-31T12:01:45;7.45;;;3.60;;
82630;SDS011;72301;52.376;9.738;2023-08-31T12:04:13;7.13;;;3.60;;
82630;SDS011;72301;52.376;9.738;2023-08-31T12:06:39;6.57;;;3.00;;
82630;SDS011;72301;52.376;9.738;2023-08-31T12:09:06;8.65;;;4.05;;
82630;SDS011;72301;52.376;9.738;2023-08-31T12:11:32;9.40;;;4.60;;
82630;SDS011;72301;52.376;9.738;2023-08-31T12:14:00;9.23;;;4.45;;
82630;SDS011;72301;52.376;9.738;2023-08-31T12:16:33;8.32;;;3.92;;
82630;SDS011;72301;52.376;9.738;2023-08-31T12:19:01;9.40;;;4.60;;
82630;SDS011;72301;52.376;9.738;2023-08-31T12:21:30;8.50;;;4.30;;
82630;SDS011;72301;52.376;9.738;2023-08-31T12:23:57;8.45;;;4.38;;
82630;SDS011;72301;52.376;9.738;2023-08-31T12:26:28;8.45;;;4.20;;
82630;SDS011;72301;52.376;9.738;2023-08-31T12:28:53;7.47;;;3.80;;
82630;SDS011;72301;52.376;9.738;2023-08-31T12:31:18;8.98;;;3.95;;
82630;SDS011;72301;52.376;9.738;2023-08-31T12:33:44;9.48;;;3.88;;
82630;SDS011;72301;52.376;9.738;2023-08-31T12:36:09;8.38;;;3.97;;
82630;SDS011;72301;52.376;9.738;2023-08-31T12:38:35;8.02;;;3.45;;
82630;SDS011;72301;52.376;9.738;2023-08-31T12:41:00;7.90;;;3.22;;
82630;SDS011;72301;52.376;9.738;2023-08-31T12:43:27;8.95;;;3.60;;
82630;SDS011;72301;52.376;9.738;2023-08-31T12:45:54;7.75;;;3.25;;
82630;SDS011;72301;52.376;9.738;2023-08-31T12:48:20;8.02;;;3.20;;
82630;SDS011;72301;52.376;9.738;2023-08-31T12:50:45;8.02;;;3.10;;
82630;SDS011;72301;52.376;9.738;2023-08-31T12:53:13;7.93;;;3.15;;
82630;SDS011;72301;52.376;9.738;2023-08-31T12:55:38;7.10;;;3.05;;
82630;SDS011;72301;52.376;9.738;2023-08-31T12:58:04;7.17;;;2.80;;
82630;SDS011;72301;52.376;9.738;2023-08-31T13:00:29;6.37;;;2.67;;
82630;SDS011;72301;52.376;9.738;2023-08-31T13:02:54;7.37;;;2.77;;
82630;SDS011;72301;52.376;9.738;2023-08-31T13:05:20;6.63;;;2.80;;
82630;SDS011;72301;52.376;9.738;2023-08-31T13:07:45;6.47;;;2.72;;
82630;SDS011;72301;52.376;9.738;2023-08-31T13:10:11;7.35;;;2.53;;
82630;SDS011;72301;52.376;9.738;2023-08-31T13:12:36;6.03;;;2.10;;
82630;SDS011;72301;52.376;9.738;2023-08-31T13:15:02;7.28;;;3.17;;
82630;SDS011;72301;52.376;9.738;2023-08-31T13:17:28;13.23;;;5.13;;
82630;SDS011;72301;52.376;9.738;2023-08-31T13:19:53;7.65;;;3.08;;
82630;SDS011;72301;52.376;9.738;2023-08-31T13:22:20;7.93;;;2.60;;
82630;SDS011;72301;52.376;9.738;2023-08-31T13:24:45;7.35;;;2.90;;
82630;SDS011;72301;52.376;9.738;2023-08-31T13:27:11;7.00;;;2.67;;
82630;SDS011;72301;52.376;9.738;2023-08-31T13:29:36;5.77;;;2.10;;
82630;SDS011;72301;52.376;9.738;2023-08-31T13:32:02;7.22;;;2.17;;
82630;SDS011;72301;52.376;9.738;2023-08-31T13:34:28;6.75;;;1.90;;
82630;SDS011;72301;52.376;9.738;2023-08-31T13:36:53;7.10;;;1.77;;
82630;SDS011;72301;52.376;9.738;2023-08-31T13:39:19;5.72;;;1.70;;
82630;SDS011;72301;52.376;9.738;2023-08-31T13:41:44;6.53;;;2.00;;
82630;SDS011;72301;52.376;9.738;2023-08-31T13:44:11;6.35;;;2.08;;
82630;SDS011;72301;52.376;9.738;2023-08-31T13:46:36;6.50;;;2.00;;
82630;SDS011;72301;52.376;9.738;2023-08-31T13:49:01;5.43;;;1.73;;
82630;SDS011;72301;52.376;9.738;2023-08-31T13:51:27;6.68;;;1.70;;
82630;SDS011;72301;52.376;9.738;2023-08-31T13:53:53;7.32;;;2.20;;
82630;SDS011;72301;52.376;9.738;2023-08-31T13:56:18;6.72;;;1.45;;
82630;SDS011;72301;52.376;9.738;2023-08-31T13:58:44;8.35;;;2.50;;
82630;SDS011;72301;52.376;9.738;2023-08-31T14:01:09;7.85;;;3.10;;
82630;SDS011;72301;52.376;9.738;2023-08-31T14:03:34;27.90;;;13.70;;
82630;SDS011;72301;52.376;9.738;2023-08-31T14:06:00;13.50;;;6.13;;
82630;SDS011;72301;52.376;9.738;2023-08-31T14:08:25;9.53;;;4.00;;
82630;SDS011;72301;52.376;9.738;2023-08-31T14:10:52;8.40;;;3.70;;
82630;SDS011;72301;52.376;9.738;2023-08-31T14:13:18;15.68;;;7.45;;
82630;SDS011;72301;52.376;9.738;2023-08-31T14:15:44;12.32;;;5.40;;
82630;SDS011;72301;52.376;9.738;2023-08-31T14:18:11;18.15;;;7.70;;
82630;SDS011;72301;52.376;9.738;2023-08-31T14:20:37;13.20;;;6.57;;
82630;SDS011;72301;52.376;9.738;2023-08-31T14:23:03;16.42;;;8.25;;
82630;SDS011;72301;52.376;9.738;2023-08-31T14:25:33;13.00;;;6.15;;
82630;SDS011;72301;52.376;9.738;2023-08-31T14:27:59;20.40;;;10.82;;
82630;SDS011;72301;52.376;9.738;2023-08-31T14:30:24;15.60;;;7.90;;
82630;SDS011;72301;52.376;9.738;2023-08-31T14:32:49;16.70;;;9.63;;
82630;SDS011;72301;52.376;9.738;2023-08-31T14:35:15;14.43;;;7.43;;
82630;SDS011;72301;52.376;9.738;2023-08-31T14:37:40;14.00;;;7.07;;
82630;SDS011;72301;52.376;9.738;2023-08-31T14:40:06;12.63;;;6.28;;
82630;SDS011;72301;52.376;9.738;2023-08-31T14:42:32;14.45;;;5.55;;
82630;SDS011;72301;52.376;9.738;2023-08-31T14:44:58;11.55;;;5.65;;
82630;SDS011;72301;52.376;9.738;2023-08-31T14:47:24;11.35;;;5.32;;
82630;SDS011;72301;52.376;9.738;2023-08-31T14:49:49;12.50;;;5.72;;
82630;SDS011;72301;52.376;9.738;2023-08-31T14:52:14;13.40;;;6.57;;
82630;SDS011;72301;52.376;9.738;2023-08-31T14:54:40;11.53;;;4.90;;
82630;SDS011;72301;52.376;9.738;2023-08-31T14:57:05;11.40;;;5.75;;
82630;SDS011;72301;52.376;9.738;2023-08-31T14:59:31;14.60;;;7.43;;
82630;SDS011;72301;52.376;9.738;2023-08-31T15:01:56;13.07;;;6.05;;
82630;SDS011;72301;52.376;9.738;2023-08-31T15:04:22;14.90;;;6.82;;